PWSweather.com
Personal Weather Stations
Station Observations
RAINWISE1
Rainwise Factory, Bar Harbor, ME 04609

Rainwise FactoryBar Harbor, ME 04609

Lat: 44.3897429696629, Lon: -68.2077813148499

Elevation: 29

Station Type: Rainwise MK-III

www.rainwise.com

High Low Average
Temperature 30.3°F-0.9°C 18.6°F-7.4°C 22.1°F-5.5°C
Dew Point 19.0°F-7.2°C 6.7°F-14.1°C 10.9°F-11.7°C
Winds 6.9 mph 11.1 kmh Calm Calm 3.0 mph ENE4.8 kmh ENE
Wind Gusts 12.5 mph20.1 kmh -- 5.0 mph8.0 kmh
Humidity 89% 53% 62%
Pressure 30.42 in1030.1 mb 30.21 in1023.0 mb -
Precipitation 0.00 in0.0 mm - -
Hour Temp Dew Point Humidity Winds Wind Gusts Pressure Precip Precip Rate Daily Precip Total
12:04 AM 30.3°F-0.9°C 18.9°F-7.3°C 62% 1.8 mph NNE2.9 kmh NNE 4.0 mph6.4 kmh 30.21 in1023.0 mb 0.00 in0.0 mm 0.00 in0.0 mm 0.00 in0.0 mm
12:09 AM 30.3°F-0.9°C 18.5°F-7.5°C 61% 3.6 mph NNE5.8 kmh NNE 5.5 mph8.9 kmh 30.21 in1023.0 mb 0.00 in0.0 mm 0.00 in0.0 mm 0.00 in0.0 mm
12:14 AM 30.3°F-0.9°C 18.5°F-7.5°C 61% 2.6 mph N4.2 kmh N 4.4 mph7.1 kmh 30.21 in1023.0 mb 0.00 in0.0 mm 0.00 in0.0 mm 0.00 in0.0 mm
12:19 AM 30.2°F-1.0°C 18.8°F-7.3°C 62% 1.7 mph NNW2.7 kmh NNW 3.0 mph4.8 kmh 30.21 in1023.0 mb 0.00 in0.0 mm 0.00 in0.0 mm 0.00 in0.0 mm
12:24 AM 30.1°F-1.1°C 18.7°F-7.4°C 62% 0.7 mph N1.1 kmh N 2.2 mph3.5 kmh 30.22 in1023.4 mb 0.00 in0.0 mm 0.00 in0.0 mm 0.00 in0.0 mm
12:29 AM 30.1°F-1.1°C 19.0°F-7.2°C 63% 3.0 mph E4.8 kmh E 5.5 mph8.9 kmh 30.22 in1023.4 mb 0.00 in0.0 mm 0.00 in0.0 mm 0.00 in0.0 mm
12:34 AM 30.1°F-1.1°C 19.0°F-7.2°C 63% 4.9 mph NE7.9 kmh NE 7.2 mph11.6 kmh 30.22 in1023.4 mb 0.00 in0.0 mm 0.00 in0.0 mm 0.00 in0.0 mm
12:39 AM 30.0°F-1.1°C 19.0°F-7.2°C 63% 1.8 mph NNE2.9 kmh NNE 4.2 mph6.8 kmh 30.22 in1023.4 mb 0.00 in0.0 mm 0.00 in0.0 mm 0.00 in0.0 mm
12:44 AM 29.8°F-1.2°C 18.4°F-7.6°C 62% 2.2 mph NE3.5 kmh NE 4.9 mph7.9 kmh 30.22 in1023.4 mb 0.00 in0.0 mm 0.00 in0.0 mm 0.00 in0.0 mm
12:49 AM 29.6°F-1.3°C 17.8°F-7.9°C 61% 3.2 mph NE5.1 kmh NE 5.4 mph8.7 kmh 30.22 in1023.4 mb 0.00 in0.0 mm 0.00 in0.0 mm 0.00 in0.0 mm
12:54 AM 29.6°F-1.3°C 18.2°F-7.7°C 62% 1.2 mph E1.9 kmh E 3.5 mph5.6 kmh 30.22 in1023.4 mb 0.00 in0.0 mm 0.00 in0.0 mm 0.00 in0.0 mm
12:59 AM 29.5°F-1.4°C 18.5°F-7.5°C 63% 3.0 mph NE4.8 kmh NE 7.2 mph11.6 kmh 30.22 in1023.4 mb 0.00 in0.0 mm 0.00 in0.0 mm 0.00 in0.0 mm
01:04 AM 29.3°F-1.5°C 17.9°F-7.8°C 62% 4.5 mph NNE7.2 kmh NNE 6.5 mph10.5 kmh 30.22 in1023.4 mb 0.00 in0.0 mm 0.00 in0.0 mm 0.00 in0.0 mm
01:09 AM 29.3°F-1.5°C 17.5°F-8.1°C 61% 3.4 mph NE5.5 kmh NE 6.0 mph9.7 kmh 30.22 in1023.4 mb 0.00 in0.0 mm 0.00 in0.0 mm 0.00 in0.0 mm
01:14 AM 29.2°F-1.6°C 17.4°F-8.1°C 61% 0.1 mph E0.2 kmh E 1.3 mph2.1 kmh 30.22 in1023.4 mb 0.00 in0.0 mm 0.00 in0.0 mm 0.00 in0.0 mm
01:19 AM 29.1°F-1.6°C 17.0°F-8.3°C 60% 1.7 mph N2.7 kmh N 2.7 mph4.3 kmh 30.22 in1023.4 mb 0.00 in0.0 mm 0.00 in0.0 mm 0.00 in0.0 mm
01:24 AM 29.1°F-1.6°C 17.0°F-8.3°C 60% 5.5 mph NE8.9 kmh NE 9.5 mph15.3 kmh 30.22 in1023.4 mb 0.00 in0.0 mm 0.00 in0.0 mm 0.00 in0.0 mm
01:29 AM 29.1°F-1.6°C 17.4°F-8.1°C 61% 3.8 mph N6.1 kmh N 5.7 mph9.2 kmh 30.23 in1023.7 mb 0.00 in0.0 mm 0.00 in0.0 mm 0.00 in0.0 mm
01:34 AM 29.1°F-1.6°C 17.4°F-8.1°C 61% 3.9 mph NNE6.3 kmh NNE 7.2 mph11.6 kmh 30.23 in1023.7 mb 0.00 in0.0 mm 0.00 in0.0 mm 0.00 in0.0 mm
01:39 AM 29.0°F-1.7°C 17.3°F-8.2°C 61% 4.0 mph NNE6.4 kmh NNE 7.5 mph12.1 kmh 30.23 in1023.7 mb 0.00 in0.0 mm 0.00 in0.0 mm 0.00 in0.0 mm
01:44 AM 29.0°F-1.7°C 17.3°F-8.2°C 61% 2.8 mph NNE4.5 kmh NNE 4.4 mph7.1 kmh 30.23 in1023.7 mb 0.00 in0.0 mm 0.00 in0.0 mm 0.00 in0.0 mm
01:49 AM 28.8°F-1.8°C 17.1°F-8.3°C 61% 2.6 mph E4.2 kmh E 4.9 mph7.9 kmh 30.24 in1024.0 mb 0.00 in0.0 mm 0.00 in0.0 mm 0.00 in0.0 mm
01:54 AM 28.7°F-1.8°C 16.6°F-8.6°C 60% 3.6 mph NE5.8 kmh NE 6.0 mph9.7 kmh 30.24 in1024.0 mb 0.00 in0.0 mm 0.00 in0.0 mm 0.00 in0.0 mm
01:59 AM 28.5°F-1.9°C 16.0°F-8.9°C 59% 3.8 mph ENE6.1 kmh ENE 7.5 mph12.1 kmh 30.24 in1024.0 mb 0.00 in0.0 mm 0.00 in0.0 mm 0.00 in0.0 mm
02:04 AM 28.3°F-2.1°C 15.0°F-9.4°C 57% 2.2 mph E3.5 kmh E 5.0 mph8.0 kmh 30.25 in1024.4 mb 0.00 in0.0 mm 0.00 in0.0 mm 0.00 in0.0 mm
02:09 AM 28.1°F-2.2°C 15.3°F-9.3°C 58% 4.3 mph NE6.9 kmh NE 7.0 mph11.3 kmh 30.25 in1024.4 mb 0.00 in0.0 mm 0.00 in0.0 mm 0.00 in0.0 mm
02:14 AM 27.8°F-2.3°C 14.6°F-9.7°C 57% 4.3 mph ENE6.9 kmh ENE 7.9 mph12.7 kmh 30.25 in1024.4 mb 0.00 in0.0 mm 0.00 in0.0 mm 0.00 in0.0 mm
02:19 AM 27.7°F-2.4°C 14.1°F-9.9°C 56% 0.6 mph W1.0 kmh W 3.2 mph5.1 kmh 30.25 in1024.4 mb 0.00 in0.0 mm 0.00 in0.0 mm 0.00 in0.0 mm
02:24 AM 27.7°F-2.4°C 14.5°F-9.7°C 57% 1.3 mph ENE2.1 kmh ENE 3.7 mph6.0 kmh 30.25 in1024.4 mb 0.00 in0.0 mm 0.00 in0.0 mm 0.00 in0.0 mm
02:29 AM 27.6°F-2.4°C 14.4°F-9.8°C 57% 3.9 mph NE6.3 kmh NE 5.4 mph8.7 kmh 30.25 in1024.4 mb 0.00 in0.0 mm 0.00 in0.0 mm 0.00 in0.0 mm
02:34 AM 27.5°F-2.5°C 14.7°F-9.6°C 58% 3.9 mph NNE6.3 kmh NNE 7.0 mph11.3 kmh 30.25 in1024.4 mb 0.00 in0.0 mm 0.00 in0.0 mm 0.00 in0.0 mm
02:39 AM 27.3°F-2.6°C 13.7°F-10.2°C 56% 3.3 mph NNE5.3 kmh NNE 6.0 mph9.7 kmh 30.25 in1024.4 mb 0.00 in0.0 mm 0.00 in0.0 mm 0.00 in0.0 mm
02:44 AM 27.3°F-2.6°C 14.1°F-9.9°C 57% 5.1 mph NE8.2 kmh NE 7.9 mph12.7 kmh 30.25 in1024.4 mb 0.00 in0.0 mm 0.00 in0.0 mm 0.00 in0.0 mm
02:49 AM 27.3°F-2.6°C 14.1°F-9.9°C 57% 5.0 mph NE8.0 kmh NE 8.9 mph14.3 kmh 30.25 in1024.4 mb 0.00 in0.0 mm 0.00 in0.0 mm 0.00 in0.0 mm
02:54 AM 27.3°F-2.6°C 13.7°F-10.2°C 56% 3.1 mph NNE5.0 kmh NNE 6.2 mph10.0 kmh 30.25 in1024.4 mb 0.00 in0.0 mm 0.00 in0.0 mm 0.00 in0.0 mm
02:59 AM 27.2°F-2.7°C 14.0°F-10.0°C 57% 2.1 mph NNE3.4 kmh NNE 4.0 mph6.4 kmh 30.25 in1024.4 mb 0.00 in0.0 mm 0.00 in0.0 mm 0.00 in0.0 mm
03:04 AM 27.1°F-2.7°C 13.9°F-10.1°C 57% 4.6 mph NNE7.4 kmh NNE 6.5 mph10.5 kmh 30.26 in1024.7 mb 0.00 in0.0 mm 0.00 in0.0 mm 0.00 in0.0 mm
03:09 AM 27.1°F-2.7°C 13.5°F-10.3°C 56% 3.8 mph NNE6.1 kmh NNE 6.0 mph9.7 kmh 30.26 in1024.7 mb 0.00 in0.0 mm 0.00 in0.0 mm 0.00 in0.0 mm
03:14 AM 27.0°F-2.8°C 13.8°F-10.1°C 57% 3.3 mph NE5.3 kmh NE 4.9 mph7.9 kmh 30.26 in1024.7 mb 0.00 in0.0 mm 0.00 in0.0 mm 0.00 in0.0 mm
03:19 AM 27.1°F-2.7°C 13.9°F-10.1°C 57% 1.4 mph E2.3 kmh E 3.5 mph5.6 kmh 30.26 in1024.7 mb 0.00 in0.0 mm 0.00 in0.0 mm 0.00 in0.0 mm
03:24 AM 27.0°F-2.8°C 13.8°F-10.1°C 57% 4.4 mph NNE7.1 kmh NNE 8.5 mph13.7 kmh 30.26 in1024.7 mb 0.00 in0.0 mm 0.00 in0.0 mm 0.00 in0.0 mm
03:29 AM 26.8°F-2.9°C 14.0°F-10.0°C 58% 4.9 mph NNE7.9 kmh NNE 9.8 mph15.8 kmh 30.26 in1024.7 mb 0.00 in0.0 mm 0.00 in0.0 mm 0.00 in0.0 mm
03:34 AM 26.6°F-3.0°C 13.8°F-10.1°C 58% 5.2 mph NNE8.4 kmh NNE 6.2 mph10.0 kmh 30.26 in1024.7 mb 0.00 in0.0 mm 0.00 in0.0 mm 0.00 in0.0 mm
03:39 AM 26.5°F-3.1°C 13.7°F-10.2°C 58% 6.9 mph NNE11.1 kmh NNE 10.3 mph16.6 kmh 30.26 in1024.7 mb 0.00 in0.0 mm 0.00 in0.0 mm 0.00 in0.0 mm
03:44 AM 26.3°F-3.2°C 13.2°F-10.4°C 57% 5.1 mph NNE8.2 kmh NNE 7.9 mph12.7 kmh 30.26 in1024.7 mb 0.00 in0.0 mm 0.00 in0.0 mm 0.00 in0.0 mm
03:49 AM 26.3°F-3.2°C 13.6°F-10.2°C 58% 5.7 mph NNE9.2 kmh NNE 9.0 mph14.5 kmh 30.26 in1024.7 mb 0.00 in0.0 mm 0.00 in0.0 mm 0.00 in0.0 mm
03:54 AM 26.1°F-3.3°C 13.8°F-10.1°C 59% 5.7 mph NE9.2 kmh NE 9.3 mph15.0 kmh 30.27 in1025.1 mb 0.00 in0.0 mm 0.00 in0.0 mm 0.00 in0.0 mm
03:59 AM 25.8°F-3.4°C 13.5°F-10.3°C 59% 3.5 mph NNE5.6 kmh NNE 6.0 mph9.7 kmh 30.27 in1025.1 mb 0.00 in0.0 mm 0.00 in0.0 mm 0.00 in0.0 mm
04:04 AM 25.8°F-3.4°C 13.1°F-10.5°C 58% 3.1 mph NE5.0 kmh NE 5.7 mph9.2 kmh 30.27 in1025.1 mb 0.00 in0.0 mm 0.00 in0.0 mm 0.00 in0.0 mm
04:09 AM 25.7°F-3.5°C 13.4°F-10.3°C 59% 1.9 mph ESE3.1 kmh ESE 4.4 mph7.1 kmh 30.27 in1025.1 mb 0.00 in0.0 mm 0.00 in0.0 mm 0.00 in0.0 mm
04:14 AM 25.6°F-3.6°C 13.7°F-10.2°C 60% 3.0 mph SE4.8 kmh SE 4.7 mph7.6 kmh 30.28 in1025.4 mb 0.00 in0.0 mm 0.00 in0.0 mm 0.00 in0.0 mm
04:19 AM 25.3°F-3.7°C 13.4°F-10.3°C 60% 4.2 mph NE6.8 kmh NE 7.2 mph11.6 kmh 30.28 in1025.4 mb 0.00 in0.0 mm 0.00 in0.0 mm 0.00 in0.0 mm
04:24 AM 25.1°F-3.8°C 13.2°F-10.4°C 60% 2.3 mph NE3.7 kmh NE 7.5 mph12.1 kmh 30.28 in1025.4 mb 0.00 in0.0 mm 0.00 in0.0 mm 0.00 in0.0 mm
04:29 AM 24.8°F-4.0°C 12.5°F-10.8°C 59% 3.0 mph NNE4.8 kmh NNE 5.0 mph8.0 kmh 30.28 in1025.4 mb 0.00 in0.0 mm 0.00 in0.0 mm 0.00 in0.0 mm
04:34 AM 24.6°F-4.1°C 12.3°F-10.9°C 59% 3.5 mph NE5.6 kmh NE 6.0 mph9.7 kmh 30.29 in1025.7 mb 0.00 in0.0 mm 0.00 in0.0 mm 0.00 in0.0 mm
04:39 AM 24.5°F-4.2°C 12.3°F-10.9°C 59% 3.3 mph NNE5.3 kmh NNE 4.9 mph7.9 kmh 30.29 in1025.7 mb 0.00 in0.0 mm 0.00 in0.0 mm 0.00 in0.0 mm
04:44 AM 24.3°F-4.3°C 12.4°F-10.9°C 60% 0.8 mph ENE1.3 kmh ENE 2.1 mph3.4 kmh 30.29 in1025.7 mb 0.00 in0.0 mm 0.00 in0.0 mm 0.00 in0.0 mm
04:49 AM 24.3°F-4.3°C 12.8°F-10.7°C 61% 3.7 mph NE6.0 kmh NE 5.7 mph9.2 kmh 30.30 in1026.1 mb 0.00 in0.0 mm 0.00 in0.0 mm 0.00 in0.0 mm
04:54 AM 24.3°F-4.3°C 12.4°F-10.9°C 60% 2.9 mph NE4.7 kmh NE 4.7 mph7.6 kmh 30.30 in1026.1 mb 0.00 in0.0 mm 0.00 in0.0 mm 0.00 in0.0 mm
04:59 AM 24.0°F-4.4°C 12.9°F-10.6°C 62% 5.4 mph NE8.7 kmh NE 9.5 mph15.3 kmh 30.30 in1026.1 mb 0.00 in0.0 mm 0.00 in0.0 mm 0.00 in0.0 mm
05:04 AM 23.8°F-4.6°C 13.1°F-10.5°C 63% 0.9 mph ESE1.4 kmh ESE 2.6 mph4.2 kmh 30.30 in1026.1 mb 0.00 in0.0 mm 0.00 in0.0 mm 0.00 in0.0 mm
05:09 AM 23.5°F-4.7°C 12.8°F-10.7°C 63% 3.7 mph E6.0 kmh E 7.2 mph11.6 kmh 30.30 in1026.1 mb 0.00 in0.0 mm 0.00 in0.0 mm 0.00 in0.0 mm
05:14 AM 23.2°F-4.9°C 12.9°F-10.6°C 64% 1.7 mph ENE2.7 kmh ENE 4.7 mph7.6 kmh 30.30 in1026.1 mb 0.00 in0.0 mm 0.00 in0.0 mm 0.00 in0.0 mm
05:19 AM 23.1°F-4.9°C 12.8°F-10.7°C 64% 5.1 mph NE8.2 kmh NE 8.5 mph13.7 kmh 30.30 in1026.1 mb 0.00 in0.0 mm 0.00 in0.0 mm 0.00 in0.0 mm
05:24 AM 23.0°F-5.0°C 12.7°F-10.7°C 64% 1.8 mph ENE2.9 kmh ENE 6.0 mph9.7 kmh 30.31 in1026.4 mb 0.00 in0.0 mm 0.00 in0.0 mm 0.00 in0.0 mm
05:29 AM 22.8°F-5.1°C 13.2°F-10.4°C 66% 5.0 mph NE8.0 kmh NE 6.7 mph10.8 kmh 30.31 in1026.4 mb 0.00 in0.0 mm 0.00 in0.0 mm 0.00 in0.0 mm
05:34 AM 22.7°F-5.2°C 13.1°F-10.5°C 66% 4.3 mph NNE6.9 kmh NNE 8.5 mph13.7 kmh 30.31 in1026.4 mb 0.00 in0.0 mm 0.00 in0.0 mm 0.00 in0.0 mm
05:39 AM 22.6°F-5.2°C 13.3°F-10.4°C 67% 4.7 mph NE7.6 kmh NE 7.2 mph11.6 kmh 30.31 in1026.4 mb 0.00 in0.0 mm 0.00 in0.0 mm 0.00 in0.0 mm
05:44 AM 22.3°F-5.4°C 13.0°F-10.6°C 67% 5.8 mph NE9.3 kmh NE 7.5 mph12.1 kmh 30.31 in1026.4 mb 0.00 in0.0 mm 0.00 in0.0 mm 0.00 in0.0 mm
05:49 AM 22.3°F-5.4°C 13.0°F-10.6°C 67% 2.1 mph NE3.4 kmh NE 4.0 mph6.4 kmh 30.31 in1026.4 mb 0.00 in0.0 mm 0.00 in0.0 mm 0.00 in0.0 mm
05:54 AM 22.3°F-5.4°C 13.4°F-10.3°C 68% 0.6 mph NNE1.0 kmh NNE 2.2 mph3.5 kmh 30.31 in1026.4 mb 0.00 in0.0 mm 0.00 in0.0 mm 0.00 in0.0 mm
05:59 AM 22.3°F-5.4°C 13.0°F-10.6°C 67% 3.1 mph E5.0 kmh E 4.7 mph7.6 kmh 30.32 in1026.8 mb 0.00 in0.0 mm 0.00 in0.0 mm 0.00 in0.0 mm
06:04 AM 22.1°F-5.5°C 13.2°F-10.4°C 68% 3.7 mph E6.0 kmh E 7.9 mph12.7 kmh 30.32 in1026.8 mb 0.00 in0.0 mm 0.00 in0.0 mm 0.00 in0.0 mm
06:09 AM 22.1°F-5.5°C 12.8°F-10.7°C 67% 2.9 mph ENE4.7 kmh ENE 4.2 mph6.8 kmh 30.32 in1026.8 mb 0.00 in0.0 mm 0.00 in0.0 mm 0.00 in0.0 mm
06:14 AM 21.8°F-5.7°C 12.9°F-10.6°C 68% 3.2 mph E5.1 kmh E 5.0 mph8.0 kmh 30.32 in1026.8 mb 0.00 in0.0 mm 0.00 in0.0 mm 0.00 in0.0 mm
06:19 AM 21.8°F-5.7°C 12.9°F-10.6°C 68% 6.1 mph ENE9.8 kmh ENE 9.5 mph15.3 kmh 30.32 in1026.8 mb 0.00 in0.0 mm 0.00 in0.0 mm 0.00 in0.0 mm
06:24 AM 21.6°F-5.8°C 12.7°F-10.7°C 68% 6.6 mph ENE10.6 kmh ENE 9.5 mph15.3 kmh 30.32 in1026.8 mb 0.00 in0.0 mm 0.00 in0.0 mm 0.00 in0.0 mm
06:29 AM 21.6°F-5.8°C 13.0°F-10.6°C 69% 4.4 mph NE7.1 kmh NE 6.0 mph9.7 kmh 30.33 in1027.1 mb 0.00 in0.0 mm 0.00 in0.0 mm 0.00 in0.0 mm
06:34 AM 21.3°F-5.9°C 12.7°F-10.7°C 69% 4.2 mph NE6.8 kmh NE 7.2 mph11.6 kmh 30.33 in1027.1 mb 0.00 in0.0 mm 0.00 in0.0 mm 0.00 in0.0 mm
06:39 AM 21.1°F-6.1°C 12.9°F-10.6°C 70% 2.5 mph NNE4.0 kmh NNE 4.2 mph6.8 kmh 30.33 in1027.1 mb 0.00 in0.0 mm 0.00 in0.0 mm 0.00 in0.0 mm
06:44 AM 21.1°F-6.1°C 12.9°F-10.6°C 70% 3.4 mph NE5.5 kmh NE 7.5 mph12.1 kmh 30.33 in1027.1 mb 0.00 in0.0 mm 0.00 in0.0 mm 0.00 in0.0 mm
06:49 AM 21.1°F-6.1°C 12.9°F-10.6°C 70% 4.4 mph E7.1 kmh E 9.0 mph14.5 kmh 30.33 in1027.1 mb 0.00 in0.0 mm 0.00 in0.0 mm 0.00 in0.0 mm
06:54 AM 21.1°F-6.1°C 12.9°F-10.6°C 70% 4.4 mph NE7.1 kmh NE 6.7 mph10.8 kmh 30.34 in1027.4 mb 0.00 in0.0 mm 0.00 in0.0 mm 0.00 in0.0 mm
06:59 AM 20.8°F-6.2°C 12.6°F-10.8°C 70% 3.0 mph NE4.8 kmh NE 5.4 mph8.7 kmh 30.34 in1027.4 mb 0.00 in0.0 mm 0.00 in0.0 mm 0.00 in0.0 mm
07:04 AM 20.6°F-6.3°C 12.7°F-10.7°C 71% 6.5 mph NE10.5 kmh NE 11.6 mph18.7 kmh 30.34 in1027.4 mb 0.00 in0.0 mm 0.00 in0.0 mm 0.00 in0.0 mm
07:09 AM 20.6°F-6.3°C 12.4°F-10.9°C 70% 1.7 mph NNE2.7 kmh NNE 4.4 mph7.1 kmh 30.34 in1027.4 mb 0.00 in0.0 mm 0.00 in0.0 mm 0.00 in0.0 mm
07:14 AM 20.6°F-6.3°C 12.4°F-10.9°C 70% 3.1 mph ENE5.0 kmh ENE 6.5 mph10.5 kmh 30.34 in1027.4 mb 0.00 in0.0 mm 0.00 in0.0 mm 0.00 in0.0 mm
07:19 AM 20.5°F-6.4°C 12.6°F-10.8°C 71% 2.7 mph ENE4.3 kmh ENE 4.4 mph7.1 kmh 30.34 in1027.4 mb 0.00 in0.0 mm 0.00 in0.0 mm 0.00 in0.0 mm
07:24 AM 20.4°F-6.4°C 12.2°F-11.0°C 70% 3.9 mph NE6.3 kmh NE 7.0 mph11.3 kmh 30.35 in1027.8 mb 0.00 in0.0 mm 0.00 in0.0 mm 0.00 in0.0 mm
07:29 AM 20.3°F-6.5°C 12.4°F-10.9°C 71% 3.9 mph E6.3 kmh E 9.0 mph14.5 kmh 30.35 in1027.8 mb 0.00 in0.0 mm 0.00 in0.0 mm 0.00 in0.0 mm
07:34 AM 20.2°F-6.6°C 12.3°F-10.9°C 71% 5.0 mph NE8.0 kmh NE 8.5 mph13.7 kmh 30.35 in1027.8 mb 0.00 in0.0 mm 0.00 in0.0 mm 0.00 in0.0 mm
07:39 AM 19.9°F-6.7°C 11.7°F-11.3°C 70% 2.9 mph NE4.7 kmh NE 5.4 mph8.7 kmh 30.35 in1027.8 mb 0.00 in0.0 mm 0.00 in0.0 mm 0.00 in0.0 mm
07:44 AM 19.5°F-6.9°C 10.7°F-11.8°C 68% 6.5 mph NE10.5 kmh NE 8.5 mph13.7 kmh 30.36 in1028.1 mb 0.00 in0.0 mm 0.00 in0.0 mm 0.00 in0.0 mm
07:49 AM 19.3°F-7.1°C 10.5°F-11.9°C 68% 3.4 mph NE5.5 kmh NE 7.7 mph12.4 kmh 30.36 in1028.1 mb 0.00 in0.0 mm 0.00 in0.0 mm 0.00 in0.0 mm
07:54 AM 19.1°F-7.2°C 10.3°F-12.1°C 68% 5.6 mph NE9.0 kmh NE 10.5 mph16.9 kmh 30.37 in1028.4 mb 0.00 in0.0 mm 0.00 in0.0 mm 0.00 in0.0 mm
07:59 AM 19.1°F-7.2°C 10.3°F-12.1°C 68% 5.8 mph NNE9.3 kmh NNE 12.5 mph20.1 kmh 30.37 in1028.4 mb 0.00 in0.0 mm 0.00 in0.0 mm 0.00 in0.0 mm
08:04 AM 19.1°F-7.2°C 10.3°F-12.1°C 68% 3.8 mph N6.1 kmh N 7.0 mph11.3 kmh 30.37 in1028.4 mb 0.00 in0.0 mm 0.00 in0.0 mm 0.00 in0.0 mm
08:09 AM 19.0°F-7.2°C 10.2°F-12.1°C 68% 1.8 mph N2.9 kmh N 6.2 mph10.0 kmh 30.38 in1028.8 mb 0.00 in0.0 mm 0.00 in0.0 mm 0.00 in0.0 mm
08:14 AM 18.9°F-7.3°C 10.4°F-12.0°C 69% 5.0 mph NE8.0 kmh NE 7.5 mph12.1 kmh 30.38 in1028.8 mb 0.00 in0.0 mm 0.00 in0.0 mm 0.00 in0.0 mm
08:19 AM 18.8°F-7.3°C 10.3°F-12.1°C 69% 3.3 mph NNE5.3 kmh NNE 6.7 mph10.8 kmh 30.38 in1028.8 mb 0.00 in0.0 mm 0.00 in0.0 mm 0.00 in0.0 mm
08:24 AM 18.8°F-7.3°C 10.3°F-12.1°C 69% 3.4 mph NE5.5 kmh NE 5.5 mph8.9 kmh 30.38 in1028.8 mb 0.00 in0.0 mm 0.00 in0.0 mm 0.00 in0.0 mm
08:29 AM 18.8°F-7.3°C 10.3°F-12.1°C 69% 2.1 mph NE3.4 kmh NE 6.2 mph10.0 kmh 30.38 in1028.8 mb 0.00 in0.0 mm 0.00 in0.0 mm 0.00 in0.0 mm
08:34 AM 18.8°F-7.3°C 10.3°F-12.1°C 69% 4.4 mph ENE7.1 kmh ENE 6.5 mph10.5 kmh 30.38 in1028.8 mb 0.00 in0.0 mm 0.00 in0.0 mm 0.00 in0.0 mm
08:39 AM 18.8°F-7.3°C 9.7°F-12.4°C 67% 2.2 mph NNE3.5 kmh NNE 5.0 mph8.0 kmh 30.38 in1028.8 mb 0.00 in0.0 mm 0.00 in0.0 mm 0.00 in0.0 mm
08:44 AM 18.8°F-7.3°C 10.0°F-12.2°C 68% 1.2 mph N1.9 kmh N 4.0 mph6.4 kmh 30.38 in1028.8 mb 0.00 in0.0 mm 0.00 in0.0 mm 0.00 in0.0 mm
08:49 AM 19.0°F-7.2°C 9.9°F-12.3°C 67% 2.0 mph E3.2 kmh E 3.2 mph5.1 kmh 30.39 in1029.1 mb 0.00 in0.0 mm 0.00 in0.0 mm 0.00 in0.0 mm
08:54 AM 19.1°F-7.2°C 10.0°F-12.2°C 67% 3.3 mph ENE5.3 kmh ENE 6.2 mph10.0 kmh 30.39 in1029.1 mb 0.00 in0.0 mm 0.00 in0.0 mm 0.00 in0.0 mm
08:59 AM 19.1°F-7.2°C 9.3°F-12.6°C 65% 1.9 mph NE3.1 kmh NE 3.5 mph5.6 kmh 30.39 in1029.1 mb 0.00 in0.0 mm 0.00 in0.0 mm 0.00 in0.0 mm
09:04 AM 19.1°F-7.2°C 9.6°F-12.4°C 66% 5.6 mph ENE9.0 kmh ENE 7.9 mph12.7 kmh 30.40 in1029.5 mb 0.00 in0.0 mm 0.00 in0.0 mm 0.00 in0.0 mm
09:09 AM 19.3°F-7.1°C 9.8°F-12.3°C 66% 4.0 mph ENE6.4 kmh ENE 6.5 mph10.5 kmh 30.40 in1029.5 mb 0.00 in0.0 mm 0.00 in0.0 mm 0.00 in0.0 mm
09:14 AM 19.1°F-7.2°C 9.3°F-12.6°C 65% 4.2 mph ENE6.8 kmh ENE 6.5 mph10.5 kmh 30.40 in1029.5 mb 0.00 in0.0 mm 0.00 in0.0 mm 0.00 in0.0 mm
09:19 AM 19.1°F-7.2°C 9.3°F-12.6°C 65% 4.0 mph ENE6.4 kmh ENE 7.2 mph11.6 kmh 30.40 in1029.5 mb 0.00 in0.0 mm 0.00 in0.0 mm 0.00 in0.0 mm
09:24 AM 19.1°F-7.2°C 9.0°F-12.8°C 64% 2.2 mph E3.5 kmh E 4.7 mph7.6 kmh 30.40 in1029.5 mb 0.00 in0.0 mm 0.00 in0.0 mm 0.00 in0.0 mm
09:29 AM 19.1°F-7.2°C 9.0°F-12.8°C 64% 3.5 mph NE5.6 kmh NE 6.0 mph9.7 kmh 30.41 in1029.8 mb 0.00 in0.0 mm 0.00 in0.0 mm 0.00 in0.0 mm
09:34 AM 19.3°F-7.1°C 9.1°F-12.7°C 64% 5.4 mph NE8.7 kmh NE 9.3 mph15.0 kmh 30.41 in1029.8 mb 0.00 in0.0 mm 0.00 in0.0 mm 0.00 in0.0 mm
09:39 AM 19.3°F-7.1°C 9.1°F-12.7°C 64% 3.1 mph ENE5.0 kmh ENE 5.5 mph8.9 kmh 30.41 in1029.8 mb 0.00 in0.0 mm 0.00 in0.0 mm 0.00 in0.0 mm
09:44 AM 19.3°F-7.1°C 9.1°F-12.7°C 64% 5.2 mph NE8.4 kmh NE 7.5 mph12.1 kmh 30.41 in1029.8 mb 0.00 in0.0 mm 0.00 in0.0 mm 0.00 in0.0 mm
09:49 AM 19.3°F-7.1°C 8.8°F-12.9°C 63% 4.4 mph NNE7.1 kmh NNE 6.7 mph10.8 kmh 30.42 in1030.1 mb 0.00 in0.0 mm 0.00 in0.0 mm 0.00 in0.0 mm
09:54 AM 19.1°F-7.2°C 9.0°F-12.8°C 64% 2.4 mph NNE3.9 kmh NNE 5.7 mph9.2 kmh 30.41 in1029.8 mb 0.00 in0.0 mm 0.00 in0.0 mm 0.00 in0.0 mm
09:59 AM 19.0°F-7.2°C 8.9°F-12.8°C 64% 2.7 mph ENE4.3 kmh ENE 4.2 mph6.8 kmh 30.41 in1029.8 mb 0.00 in0.0 mm 0.00 in0.0 mm 0.00 in0.0 mm
10:04 AM 19.0°F-7.2°C 8.9°F-12.8°C 64% 6.3 mph NE10.1 kmh NE 9.8 mph15.8 kmh 30.41 in1029.8 mb 0.00 in0.0 mm 0.00 in0.0 mm 0.00 in0.0 mm
10:09 AM 18.8°F-7.3°C 9.0°F-12.8°C 65% 4.8 mph NE7.7 kmh NE 7.9 mph12.7 kmh 30.41 in1029.8 mb 0.00 in0.0 mm 0.00 in0.0 mm 0.00 in0.0 mm
10:14 AM 18.6°F-7.4°C 8.8°F-12.9°C 65% 6.0 mph NE9.7 kmh NE 9.5 mph15.3 kmh 30.41 in1029.8 mb 0.00 in0.0 mm 0.00 in0.0 mm 0.00 in0.0 mm
10:19 AM 18.8°F-7.3°C 9.0°F-12.8°C 65% 4.9 mph NE7.9 kmh NE 7.5 mph12.1 kmh 30.41 in1029.8 mb 0.00 in0.0 mm 0.00 in0.0 mm 0.00 in0.0 mm
10:24 AM 18.9°F-7.3°C 9.4°F-12.6°C 66% 4.3 mph NNE6.9 kmh NNE 7.5 mph12.1 kmh 30.41 in1029.8 mb 0.00 in0.0 mm 0.00 in0.0 mm 0.00 in0.0 mm
10:29 AM 18.9°F-7.3°C 9.4°F-12.6°C 66% 4.2 mph E6.8 kmh E 7.5 mph12.1 kmh 30.40 in1029.5 mb 0.00 in0.0 mm 0.00 in0.0 mm 0.00 in0.0 mm
10:34 AM 19.0°F-7.2°C 9.9°F-12.3°C 67% 3.4 mph NE5.5 kmh NE 5.4 mph8.7 kmh 30.41 in1029.8 mb 0.00 in0.0 mm 0.00 in0.0 mm 0.00 in0.0 mm
10:39 AM 19.1°F-7.2°C 10.0°F-12.2°C 67% 4.3 mph NE6.9 kmh NE 7.5 mph12.1 kmh 30.41 in1029.8 mb 0.00 in0.0 mm 0.00 in0.0 mm 0.00 in0.0 mm
10:44 AM 19.1°F-7.2°C 9.6°F-12.4°C 66% 3.5 mph NE5.6 kmh NE 5.5 mph8.9 kmh 30.41 in1029.8 mb 0.00 in0.0 mm 0.00 in0.0 mm 0.00 in0.0 mm
10:49 AM 19.1°F-7.2°C 10.0°F-12.2°C 67% 6.1 mph NE9.8 kmh NE 9.5 mph15.3 kmh 30.40 in1029.5 mb 0.00 in0.0 mm 0.00 in0.0 mm 0.00 in0.0 mm
10:54 AM 19.1°F-7.2°C 10.0°F-12.2°C 67% 3.9 mph NE6.3 kmh NE 6.2 mph10.0 kmh 30.40 in1029.5 mb 0.00 in0.0 mm 0.00 in0.0 mm 0.00 in0.0 mm
10:59 AM 19.1°F-7.2°C 10.0°F-12.2°C 67% 5.4 mph NE8.7 kmh NE 7.7 mph12.4 kmh 30.40 in1029.5 mb 0.00 in0.0 mm 0.00 in0.0 mm 0.00 in0.0 mm
11:04 AM 19.1°F-7.2°C 9.6°F-12.4°C 66% 4.7 mph NE7.6 kmh NE 7.2 mph11.6 kmh 30.40 in1029.5 mb 0.00 in0.0 mm 0.00 in0.0 mm 0.00 in0.0 mm
11:09 AM 19.1°F-7.2°C 10.0°F-12.2°C 67% 1.6 mph NE2.6 kmh NE 4.0 mph6.4 kmh 30.40 in1029.5 mb 0.00 in0.0 mm 0.00 in0.0 mm 0.00 in0.0 mm
11:14 AM 19.1°F-7.2°C 10.0°F-12.2°C 67% 1.7 mph N2.7 kmh N 3.0 mph4.8 kmh 30.39 in1029.1 mb 0.00 in0.0 mm 0.00 in0.0 mm 0.00 in0.0 mm
11:19 AM 19.3°F-7.1°C 10.2°F-12.1°C 67% 1.7 mph ESE2.7 kmh ESE 3.0 mph4.8 kmh 30.39 in1029.1 mb 0.00 in0.0 mm 0.00 in0.0 mm 0.00 in0.0 mm
11:24 AM 19.3°F-7.1°C 10.2°F-12.1°C 67% 3.3 mph NE5.3 kmh NE 5.5 mph8.9 kmh 30.39 in1029.1 mb 0.00 in0.0 mm 0.00 in0.0 mm 0.00 in0.0 mm
11:29 AM 19.3°F-7.1°C 9.8°F-12.3°C 66% 1.6 mph NE2.6 kmh NE 3.5 mph5.6 kmh 30.39 in1029.1 mb 0.00 in0.0 mm 0.00 in0.0 mm 0.00 in0.0 mm
11:34 AM 19.3°F-7.1°C 9.8°F-12.3°C 66% 4.1 mph ESE6.6 kmh ESE 7.2 mph11.6 kmh 30.39 in1029.1 mb 0.00 in0.0 mm 0.00 in0.0 mm 0.00 in0.0 mm
11:39 AM 19.3°F-7.1°C 9.5°F-12.5°C 65% 2.4 mph NE3.9 kmh NE 5.4 mph8.7 kmh 30.39 in1029.1 mb 0.00 in0.0 mm 0.00 in0.0 mm 0.00 in0.0 mm
11:44 AM 19.3°F-7.1°C 9.5°F-12.5°C 65% 3.9 mph ENE6.3 kmh ENE 8.4 mph13.5 kmh 30.39 in1029.1 mb 0.00 in0.0 mm 0.00 in0.0 mm 0.00 in0.0 mm
11:49 AM 19.3°F-7.1°C 9.5°F-12.5°C 65% 3.5 mph E5.6 kmh E 7.5 mph12.1 kmh 30.38 in1028.8 mb 0.00 in0.0 mm 0.00 in0.0 mm 0.00 in0.0 mm
11:54 AM 19.3°F-7.1°C 9.5°F-12.5°C 65% 2.8 mph E4.5 kmh E 6.0 mph9.7 kmh 30.38 in1028.8 mb 0.00 in0.0 mm 0.00 in0.0 mm 0.00 in0.0 mm
11:59 AM 19.1°F-7.2°C 8.6°F-13.0°C 63% 6.1 mph NE9.8 kmh NE 8.5 mph13.7 kmh 30.38 in1028.8 mb 0.00 in0.0 mm 0.00 in0.0 mm 0.00 in0.0 mm
12:04 PM 19.1°F-7.2°C 8.6°F-13.0°C 63% 3.6 mph NE5.8 kmh NE 7.0 mph11.3 kmh 30.38 in1028.8 mb 0.00 in0.0 mm 0.00 in0.0 mm 0.00 in0.0 mm
12:09 PM 19.1°F-7.2°C 9.0°F-12.8°C 64% 2.9 mph NE4.7 kmh NE 4.2 mph6.8 kmh 30.38 in1028.8 mb 0.00 in0.0 mm 0.00 in0.0 mm 0.00 in0.0 mm
12:14 PM 19.1°F-7.2°C 8.6°F-13.0°C 63% 4.2 mph NNE6.8 kmh NNE 6.7 mph10.8 kmh 30.38 in1028.8 mb 0.00 in0.0 mm 0.00 in0.0 mm 0.00 in0.0 mm
12:19 PM 19.1°F-7.2°C 9.3°F-12.6°C 65% 3.0 mph NE4.8 kmh NE 7.5 mph12.1 kmh 30.38 in1028.8 mb 0.00 in0.0 mm 0.00 in0.0 mm 0.00 in0.0 mm
12:24 PM 19.2°F-7.1°C 9.4°F-12.6°C 65% 4.0 mph NNE6.4 kmh NNE 6.5 mph10.5 kmh 30.37 in1028.4 mb 0.00 in0.0 mm 0.00 in0.0 mm 0.00 in0.0 mm
12:29 PM 19.1°F-7.2°C 9.3°F-12.6°C 65% 4.6 mph N7.4 kmh N 8.5 mph13.7 kmh 30.37 in1028.4 mb 0.00 in0.0 mm 0.00 in0.0 mm 0.00 in0.0 mm
12:34 PM 19.1°F-7.2°C 9.3°F-12.6°C 65% 3.0 mph NNE4.8 kmh NNE 4.4 mph7.1 kmh 30.38 in1028.8 mb 0.00 in0.0 mm 0.00 in0.0 mm 0.00 in0.0 mm
12:39 PM 19.3°F-7.1°C 9.1°F-12.7°C 64% 1.6 mph NNE2.6 kmh NNE 3.0 mph4.8 kmh 30.38 in1028.8 mb 0.00 in0.0 mm 0.00 in0.0 mm 0.00 in0.0 mm
12:44 PM 19.3°F-7.1°C 9.1°F-12.7°C 64% 3.5 mph NE5.6 kmh NE 6.0 mph9.7 kmh 30.38 in1028.8 mb 0.00 in0.0 mm 0.00 in0.0 mm 0.00 in0.0 mm
12:49 PM 19.3°F-7.1°C 9.1°F-12.7°C 64% 3.6 mph NE5.8 kmh NE 5.7 mph9.2 kmh 30.37 in1028.4 mb 0.00 in0.0 mm 0.00 in0.0 mm 0.00 in0.0 mm
12:54 PM 19.3°F-7.1°C 9.1°F-12.7°C 64% 4.9 mph NE7.9 kmh NE 6.2 mph10.0 kmh 30.38 in1028.8 mb 0.00 in0.0 mm 0.00 in0.0 mm 0.00 in0.0 mm
12:59 PM 19.3°F-7.1°C 8.8°F-12.9°C 63% 4.0 mph N6.4 kmh N 5.5 mph8.9 kmh 30.37 in1028.4 mb 0.00 in0.0 mm 0.00 in0.0 mm 0.00 in0.0 mm
01:04 PM 19.4°F-7.0°C 8.9°F-12.8°C 63% 5.1 mph NNE8.2 kmh NNE 8.1 mph13.0 kmh 30.37 in1028.4 mb 0.00 in0.0 mm 0.00 in0.0 mm 0.00 in0.0 mm
01:09 PM 19.5°F-6.9°C 8.3°F-13.2°C 61% 5.0 mph NNE8.0 kmh NNE 7.0 mph11.3 kmh 30.37 in1028.4 mb 0.00 in0.0 mm 0.00 in0.0 mm 0.00 in0.0 mm
01:14 PM 19.6°F-6.9°C 8.4°F-13.1°C 61% 4.6 mph N7.4 kmh N 7.7 mph12.4 kmh 30.37 in1028.4 mb 0.00 in0.0 mm 0.00 in0.0 mm 0.00 in0.0 mm
01:19 PM 19.6°F-6.9°C 8.4°F-13.1°C 61% 4.8 mph N7.7 kmh N 8.1 mph13.0 kmh 30.37 in1028.4 mb 0.00 in0.0 mm 0.00 in0.0 mm 0.00 in0.0 mm
01:24 PM 19.6°F-6.9°C 8.4°F-13.1°C 61% 2.4 mph NNE3.9 kmh NNE 4.0 mph6.4 kmh 30.38 in1028.8 mb 0.00 in0.0 mm 0.00 in0.0 mm 0.00 in0.0 mm
01:29 PM 19.6°F-6.9°C 8.4°F-13.1°C 61% 2.3 mph NE3.7 kmh NE 4.2 mph6.8 kmh 30.38 in1028.8 mb 0.00 in0.0 mm 0.00 in0.0 mm 0.00 in0.0 mm
01:34 PM 19.6°F-6.9°C 8.4°F-13.1°C 61% 1.7 mph E2.7 kmh E 3.7 mph6.0 kmh 30.38 in1028.8 mb 0.00 in0.0 mm 0.00 in0.0 mm 0.00 in0.0 mm
01:39 PM 19.8°F-6.8°C 8.6°F-13.0°C 61% 1.7 mph E2.7 kmh E 3.5 mph5.6 kmh 30.38 in1028.8 mb 0.00 in0.0 mm 0.00 in0.0 mm 0.00 in0.0 mm
01:44 PM 20.0°F-6.7°C 8.7°F-12.9°C 61% 0.9 mph N1.4 kmh N 3.0 mph4.8 kmh 30.38 in1028.8 mb 0.00 in0.0 mm 0.00 in0.0 mm 0.00 in0.0 mm
01:49 PM 20.0°F-6.7°C 8.4°F-13.1°C 60% 3.7 mph N6.0 kmh N 6.0 mph9.7 kmh 30.37 in1028.4 mb 0.00 in0.0 mm 0.00 in0.0 mm 0.00 in0.0 mm
01:54 PM 20.0°F-6.7°C 8.0°F-13.3°C 59% 1.6 mph ENE2.6 kmh ENE 3.7 mph6.0 kmh 30.37 in1028.4 mb 0.00 in0.0 mm 0.00 in0.0 mm 0.00 in0.0 mm
01:59 PM 20.0°F-6.7°C 7.6°F-13.6°C 58% 4.9 mph NNE7.9 kmh NNE 7.7 mph12.4 kmh 30.37 in1028.4 mb 0.00 in0.0 mm 0.00 in0.0 mm 0.00 in0.0 mm
02:04 PM 20.1°F-6.6°C 7.7°F-13.5°C 58% 1.2 mph NNE1.9 kmh NNE 3.5 mph5.6 kmh 30.37 in1028.4 mb 0.00 in0.0 mm 0.00 in0.0 mm 0.00 in0.0 mm
02:09 PM 20.1°F-6.6°C 8.1°F-13.3°C 59% 2.9 mph NE4.7 kmh NE 4.4 mph7.1 kmh 30.37 in1028.4 mb 0.00 in0.0 mm 0.00 in0.0 mm 0.00 in0.0 mm
02:14 PM 20.1°F-6.6°C 7.7°F-13.5°C 58% 3.3 mph NNE5.3 kmh NNE 5.7 mph9.2 kmh 30.37 in1028.4 mb 0.00 in0.0 mm 0.00 in0.0 mm 0.00 in0.0 mm
02:19 PM 20.1°F-6.6°C 7.7°F-13.5°C 58% 4.1 mph NNE6.6 kmh NNE 5.5 mph8.9 kmh 30.37 in1028.4 mb 0.00 in0.0 mm 0.00 in0.0 mm 0.00 in0.0 mm
02:24 PM 20.1°F-6.6°C 7.3°F-13.7°C 57% 2.5 mph SE4.0 kmh SE 4.4 mph7.1 kmh 30.37 in1028.4 mb 0.00 in0.0 mm 0.00 in0.0 mm 0.00 in0.0 mm
02:29 PM 20.3°F-6.5°C 7.5°F-13.6°C 57% 2.2 mph ESE3.5 kmh ESE 4.0 mph6.4 kmh 30.37 in1028.4 mb 0.00 in0.0 mm 0.00 in0.0 mm 0.00 in0.0 mm
02:34 PM 20.4°F-6.4°C 7.6°F-13.6°C 57% 2.0 mph ENE3.2 kmh ENE 2.7 mph4.3 kmh 30.38 in1028.8 mb 0.00 in0.0 mm 0.00 in0.0 mm 0.00 in0.0 mm
02:39 PM 20.3°F-6.5°C 7.5°F-13.6°C 57% 1.6 mph ESE2.6 kmh ESE 3.7 mph6.0 kmh 30.37 in1028.4 mb 0.00 in0.0 mm 0.00 in0.0 mm 0.00 in0.0 mm
02:44 PM 20.4°F-6.4°C 8.0°F-13.3°C 58% 0.8 mph ENE1.3 kmh ENE 2.6 mph4.2 kmh 30.37 in1028.4 mb 0.00 in0.0 mm 0.00 in0.0 mm 0.00 in0.0 mm
02:49 PM 20.5°F-6.4°C 8.1°F-13.3°C 58% 1.8 mph ENE2.9 kmh ENE 3.5 mph5.6 kmh 30.37 in1028.4 mb 0.00 in0.0 mm 0.00 in0.0 mm 0.00 in0.0 mm
02:54 PM 20.6°F-6.3°C 8.2°F-13.2°C 58% 1.2 mph E1.9 kmh E 2.2 mph3.5 kmh 30.37 in1028.4 mb 0.00 in0.0 mm 0.00 in0.0 mm 0.00 in0.0 mm
02:59 PM 20.8°F-6.2°C 8.4°F-13.1°C 58% 2.9 mph E4.7 kmh E 5.5 mph8.9 kmh 30.37 in1028.4 mb 0.00 in0.0 mm 0.00 in0.0 mm 0.00 in0.0 mm
03:04 PM 20.8°F-6.2°C 8.0°F-13.3°C 57% 1.7 mph SE2.7 kmh SE 5.5 mph8.9 kmh 30.38 in1028.8 mb 0.00 in0.0 mm 0.00 in0.0 mm 0.00 in0.0 mm
03:09 PM 20.8°F-6.2°C 7.6°F-13.6°C 56% 1.4 mph ESE2.3 kmh ESE 3.7 mph6.0 kmh 30.37 in1028.4 mb 0.00 in0.0 mm 0.00 in0.0 mm 0.00 in0.0 mm
03:14 PM 21.0°F-6.1°C 7.8°F-13.4°C 56% 2.1 mph ENE3.4 kmh ENE 2.6 mph4.2 kmh 30.37 in1028.4 mb 0.00 in0.0 mm 0.00 in0.0 mm 0.00 in0.0 mm
03:19 PM 21.1°F-6.1°C 7.5°F-13.6°C 55% 2.4 mph E3.9 kmh E 3.5 mph5.6 kmh 30.37 in1028.4 mb 0.00 in0.0 mm 0.00 in0.0 mm 0.00 in0.0 mm
03:24 PM 21.1°F-6.1°C 7.5°F-13.6°C 55% 1.7 mph E2.7 kmh E 3.5 mph5.6 kmh 30.37 in1028.4 mb 0.00 in0.0 mm 0.00 in0.0 mm 0.00 in0.0 mm
03:29 PM 21.1°F-6.1°C 7.5°F-13.6°C 55% 2.2 mph E3.5 kmh E 3.7 mph6.0 kmh 30.37 in1028.4 mb 0.00 in0.0 mm 0.00 in0.0 mm 0.00 in0.0 mm
03:34 PM 21.1°F-6.1°C 7.5°F-13.6°C 55% 3.0 mph E4.8 kmh E 4.4 mph7.1 kmh 30.37 in1028.4 mb 0.00 in0.0 mm 0.00 in0.0 mm 0.00 in0.0 mm
03:39 PM 21.1°F-6.1°C 7.1°F-13.8°C 54% 1.5 mph SE2.4 kmh SE 3.7 mph6.0 kmh 30.37 in1028.4 mb 0.00 in0.0 mm 0.00 in0.0 mm 0.00 in0.0 mm
03:44 PM 21.1°F-6.1°C 6.7°F-14.1°C 53% 1.4 mph E2.3 kmh E 3.5 mph5.6 kmh 30.38 in1028.8 mb 0.00 in0.0 mm 0.00 in0.0 mm 0.00 in0.0 mm
03:49 PM 21.1°F-6.1°C 7.1°F-13.8°C 54% 1.1 mph E1.8 kmh E 2.2 mph3.5 kmh 30.38 in1028.8 mb 0.00 in0.0 mm 0.00 in0.0 mm 0.00 in0.0 mm
03:54 PM 21.1°F-6.1°C 7.1°F-13.8°C 54% 1.9 mph NNE3.1 kmh NNE 4.4 mph7.1 kmh 30.38 in1028.8 mb 0.00 in0.0 mm 0.00 in0.0 mm 0.00 in0.0 mm
03:59 PM 21.1°F-6.1°C 7.1°F-13.8°C 54% 1.6 mph E2.6 kmh E 2.7 mph4.3 kmh 30.38 in1028.8 mb 0.00 in0.0 mm 0.00 in0.0 mm 0.00 in0.0 mm
04:04 PM 21.1°F-6.1°C 7.1°F-13.8°C 54% 0.8 mph E1.3 kmh E 2.6 mph4.2 kmh 30.38 in1028.8 mb 0.00 in0.0 mm 0.00 in0.0 mm 0.00 in0.0 mm
04:09 PM 21.3°F-5.9°C 7.3°F-13.7°C 54% 2.1 mph NE3.4 kmh NE 3.2 mph5.1 kmh 30.38 in1028.8 mb 0.00 in0.0 mm 0.00 in0.0 mm 0.00 in0.0 mm
04:14 PM 21.3°F-5.9°C 6.9°F-13.9°C 53% 0.3 mph E0.5 kmh E 1.8 mph2.9 kmh 30.39 in1029.1 mb 0.00 in0.0 mm 0.00 in0.0 mm 0.00 in0.0 mm
04:19 PM 21.3°F-5.9°C 7.3°F-13.7°C 54% 1.8 mph NE2.9 kmh NE 3.0 mph4.8 kmh 30.39 in1029.1 mb 0.00 in0.0 mm 0.00 in0.0 mm 0.00 in0.0 mm
04:24 PM 21.4°F-5.9°C 7.8°F-13.4°C 55% 0.7 mph NE1.1 kmh NE 4.2 mph6.8 kmh 30.39 in1029.1 mb 0.00 in0.0 mm 0.00 in0.0 mm 0.00 in0.0 mm
04:29 PM 21.3°F-5.9°C 7.3°F-13.7°C 54% 2.9 mph NE4.7 kmh NE 4.0 mph6.4 kmh 30.40 in1029.5 mb 0.00 in0.0 mm 0.00 in0.0 mm 0.00 in0.0 mm
04:34 PM 21.3°F-5.9°C 7.7°F-13.5°C 55% 1.4 mph N2.3 kmh N 2.2 mph3.5 kmh 30.40 in1029.5 mb 0.00 in0.0 mm 0.00 in0.0 mm 0.00 in0.0 mm
04:39 PM 21.5°F-5.8°C 7.5°F-13.6°C 54% 1.4 mph NE2.3 kmh NE 2.2 mph3.5 kmh 30.41 in1029.8 mb 0.00 in0.0 mm 0.00 in0.0 mm 0.00 in0.0 mm
04:44 PM 21.5°F-5.8°C 7.5°F-13.6°C 54% 0.1 mph ENE0.2 kmh ENE 1.1 mph1.8 kmh 30.41 in1029.8 mb 0.00 in0.0 mm 0.00 in0.0 mm 0.00 in0.0 mm
04:49 PM 21.3°F-5.9°C 7.3°F-13.7°C 54% 0.4 mph NE0.6 kmh NE 1.6 mph2.6 kmh 30.41 in1029.8 mb 0.00 in0.0 mm 0.00 in0.0 mm 0.00 in0.0 mm
04:54 PM 21.4°F-5.9°C 7.4°F-13.7°C 54% 1.8 mph E2.9 kmh E 3.2 mph5.1 kmh 30.41 in1029.8 mb 0.00 in0.0 mm 0.00 in0.0 mm 0.00 in0.0 mm
04:59 PM 21.5°F-5.8°C 7.5°F-13.6°C 54% 2.4 mph ENE3.9 kmh ENE 4.7 mph7.6 kmh 30.41 in1029.8 mb 0.00 in0.0 mm 0.00 in0.0 mm 0.00 in0.0 mm
05:04 PM 21.6°F-5.8°C 7.6°F-13.6°C 54% 2.5 mph ENE4.0 kmh ENE 3.2 mph5.1 kmh 30.40 in1029.5 mb 0.00 in0.0 mm 0.00 in0.0 mm 0.00 in0.0 mm
05:09 PM 21.5°F-5.8°C 7.5°F-13.6°C 54% 1.1 mph ENE1.8 kmh ENE 3.0 mph4.8 kmh 30.40 in1029.5 mb 0.00 in0.0 mm 0.00 in0.0 mm 0.00 in0.0 mm
05:14 PM 21.5°F-5.8°C 7.5°F-13.6°C 54% Calm Calm -- 30.40 in1029.5 mb 0.00 in0.0 mm 0.00 in0.0 mm 0.00 in0.0 mm
05:19 PM 21.6°F-5.8°C 8.0°F-13.3°C 55% 1.4 mph ESE2.3 kmh ESE 3.0 mph4.8 kmh 30.40 in1029.5 mb 0.00 in0.0 mm 0.00 in0.0 mm 0.00 in0.0 mm
05:24 PM 21.6°F-5.8°C 8.0°F-13.3°C 55% 1.6 mph ENE2.6 kmh ENE 2.2 mph3.5 kmh 30.40 in1029.5 mb 0.00 in0.0 mm 0.00 in0.0 mm 0.00 in0.0 mm
05:29 PM 21.6°F-5.8°C 8.0°F-13.3°C 55% 2.6 mph SE4.2 kmh SE 4.4 mph7.1 kmh 30.40 in1029.5 mb 0.00 in0.0 mm 0.00 in0.0 mm 0.00 in0.0 mm
05:34 PM 21.6°F-5.8°C 7.6°F-13.6°C 54% 1.7 mph SE2.7 kmh SE 3.2 mph5.1 kmh 30.40 in1029.5 mb 0.00 in0.0 mm 0.00 in0.0 mm 0.00 in0.0 mm
05:39 PM 21.6°F-5.8°C 7.1°F-13.8°C 53% 2.9 mph SE4.7 kmh SE 4.0 mph6.4 kmh 30.40 in1029.5 mb 0.00 in0.0 mm 0.00 in0.0 mm 0.00 in0.0 mm
05:44 PM 21.6°F-5.8°C 7.1°F-13.8°C 53% 2.5 mph E4.0 kmh E 4.4 mph7.1 kmh 30.39 in1029.1 mb 0.00 in0.0 mm 0.00 in0.0 mm 0.00 in0.0 mm
05:49 PM 21.6°F-5.8°C 7.1°F-13.8°C 53% 2.1 mph ESE3.4 kmh ESE 3.2 mph5.1 kmh 30.39 in1029.1 mb 0.00 in0.0 mm 0.00 in0.0 mm 0.00 in0.0 mm
05:54 PM 21.6°F-5.8°C 7.6°F-13.6°C 54% 2.2 mph ESE3.5 kmh ESE 3.2 mph5.1 kmh 30.39 in1029.1 mb 0.00 in0.0 mm 0.00 in0.0 mm 0.00 in0.0 mm
05:59 PM 21.6°F-5.8°C 7.6°F-13.6°C 54% 2.2 mph SE3.5 kmh SE 3.0 mph4.8 kmh 30.39 in1029.1 mb 0.00 in0.0 mm 0.00 in0.0 mm 0.00 in0.0 mm
06:04 PM 21.6°F-5.8°C 8.0°F-13.3°C 55% 2.5 mph SE4.0 kmh SE 3.2 mph5.1 kmh 30.39 in1029.1 mb 0.00 in0.0 mm 0.00 in0.0 mm 0.00 in0.0 mm
06:09 PM 21.6°F-5.8°C 8.0°F-13.3°C 55% 2.9 mph E4.7 kmh E 4.4 mph7.1 kmh 30.39 in1029.1 mb 0.00 in0.0 mm 0.00 in0.0 mm 0.00 in0.0 mm
06:14 PM 21.6°F-5.8°C 7.6°F-13.6°C 54% 3.6 mph SE5.8 kmh SE 5.4 mph8.7 kmh 30.40 in1029.5 mb 0.00 in0.0 mm 0.00 in0.0 mm 0.00 in0.0 mm
06:19 PM 21.6°F-5.8°C 7.6°F-13.6°C 54% 1.9 mph E3.1 kmh E 3.0 mph4.8 kmh 30.40 in1029.5 mb 0.00 in0.0 mm 0.00 in0.0 mm 0.00 in0.0 mm
06:24 PM 21.6°F-5.8°C 7.6°F-13.6°C 54% 2.7 mph SE4.3 kmh SE 3.2 mph5.1 kmh 30.39 in1029.1 mb 0.00 in0.0 mm 0.00 in0.0 mm 0.00 in0.0 mm
06:29 PM 21.6°F-5.8°C 8.0°F-13.3°C 55% 2.5 mph ESE4.0 kmh ESE 4.7 mph7.6 kmh 30.38 in1028.8 mb 0.00 in0.0 mm 0.00 in0.0 mm 0.00 in0.0 mm
06:34 PM 21.6°F-5.8°C 7.6°F-13.6°C 54% 3.1 mph SE5.0 kmh SE 4.9 mph7.9 kmh 30.38 in1028.8 mb 0.00 in0.0 mm 0.00 in0.0 mm 0.00 in0.0 mm
06:39 PM 21.6°F-5.8°C 7.6°F-13.6°C 54% 0.7 mph E1.1 kmh E 2.1 mph3.4 kmh 30.38 in1028.8 mb 0.00 in0.0 mm 0.00 in0.0 mm 0.00 in0.0 mm
06:44 PM 21.6°F-5.8°C 8.0°F-13.3°C 55% 2.5 mph ENE4.0 kmh ENE 3.7 mph6.0 kmh 30.38 in1028.8 mb 0.00 in0.0 mm 0.00 in0.0 mm 0.00 in0.0 mm
06:49 PM 21.8°F-5.7°C 8.5°F-13.1°C 56% 1.9 mph E3.1 kmh E 4.2 mph6.8 kmh 30.38 in1028.8 mb 0.00 in0.0 mm 0.00 in0.0 mm 0.00 in0.0 mm
06:54 PM 21.7°F-5.7°C 8.5°F-13.1°C 56% 2.2 mph ESE3.5 kmh ESE 5.0 mph8.0 kmh 30.38 in1028.8 mb 0.00 in0.0 mm 0.00 in0.0 mm 0.00 in0.0 mm
06:59 PM 21.6°F-5.8°C 8.0°F-13.3°C 55% 4.2 mph E6.8 kmh E 5.5 mph8.9 kmh 30.37 in1028.4 mb 0.00 in0.0 mm 0.00 in0.0 mm 0.00 in0.0 mm
07:04 PM 21.7°F-5.7°C 7.7°F-13.5°C 54% 5.3 mph ESE8.5 kmh ESE 7.9 mph12.7 kmh 30.37 in1028.4 mb 0.00 in0.0 mm 0.00 in0.0 mm 0.00 in0.0 mm
07:09 PM 21.7°F-5.7°C 7.2°F-13.8°C 53% 2.1 mph E3.4 kmh E 4.7 mph7.6 kmh 30.37 in1028.4 mb 0.00 in0.0 mm 0.00 in0.0 mm 0.00 in0.0 mm
07:14 PM 21.8°F-5.7°C 7.3°F-13.7°C 53% 2.3 mph E3.7 kmh E 4.0 mph6.4 kmh 30.37 in1028.4 mb 0.00 in0.0 mm 0.00 in0.0 mm 0.00 in0.0 mm
07:19 PM 21.8°F-5.7°C 7.7°F-13.5°C 54% 3.7 mph E6.0 kmh E 5.5 mph8.9 kmh 30.36 in1028.1 mb 0.00 in0.0 mm 0.00 in0.0 mm 0.00 in0.0 mm
07:24 PM 21.8°F-5.7°C 7.3°F-13.7°C 53% 3.6 mph E5.8 kmh E 7.2 mph11.6 kmh 30.36 in1028.1 mb 0.00 in0.0 mm 0.00 in0.0 mm 0.00 in0.0 mm
07:29 PM 21.8°F-5.7°C 7.3°F-13.7°C 53% 3.0 mph ENE4.8 kmh ENE 6.0 mph9.7 kmh 30.36 in1028.1 mb 0.00 in0.0 mm 0.00 in0.0 mm 0.00 in0.0 mm
07:34 PM 21.7°F-5.7°C 7.7°F-13.5°C 54% 2.9 mph ENE4.7 kmh ENE 6.0 mph9.7 kmh 30.36 in1028.1 mb 0.00 in0.0 mm 0.00 in0.0 mm 0.00 in0.0 mm
07:39 PM 21.8°F-5.7°C 7.7°F-13.5°C 54% 1.4 mph ENE2.3 kmh ENE 3.0 mph4.8 kmh 30.37 in1028.4 mb 0.00 in0.0 mm 0.00 in0.0 mm 0.00 in0.0 mm
07:44 PM 21.8°F-5.7°C 7.7°F-13.5°C 54% 3.1 mph NE5.0 kmh NE 4.2 mph6.8 kmh 30.37 in1028.4 mb 0.00 in0.0 mm 0.00 in0.0 mm 0.00 in0.0 mm
07:49 PM 21.8°F-5.7°C 7.7°F-13.5°C 54% 4.0 mph ESE6.4 kmh ESE 6.5 mph10.5 kmh 30.37 in1028.4 mb 0.00 in0.0 mm 0.00 in0.0 mm 0.00 in0.0 mm
07:54 PM 21.8°F-5.7°C 7.3°F-13.7°C 53% 3.1 mph E5.0 kmh E 5.5 mph8.9 kmh 30.36 in1028.1 mb 0.00 in0.0 mm 0.00 in0.0 mm 0.00 in0.0 mm
07:59 PM 21.8°F-5.7°C 7.3°F-13.7°C 53% 0.6 mph ENE1.0 kmh ENE 1.6 mph2.6 kmh 30.37 in1028.4 mb 0.00 in0.0 mm 0.00 in0.0 mm 0.00 in0.0 mm
08:04 PM 21.8°F-5.7°C 7.3°F-13.7°C 53% 1.8 mph E2.9 kmh E 4.2 mph6.8 kmh 30.37 in1028.4 mb 0.00 in0.0 mm 0.00 in0.0 mm 0.00 in0.0 mm
08:09 PM 21.8°F-5.7°C 7.3°F-13.7°C 53% 2.8 mph ESE4.5 kmh ESE 4.9 mph7.9 kmh 30.36 in1028.1 mb 0.00 in0.0 mm 0.00 in0.0 mm 0.00 in0.0 mm
08:14 PM 21.8°F-5.7°C 8.1°F-13.3°C 55% 2.7 mph ESE4.3 kmh ESE 4.7 mph7.6 kmh 30.35 in1027.8 mb 0.00 in0.0 mm 0.00 in0.0 mm 0.00 in0.0 mm
08:19 PM 21.8°F-5.7°C 7.7°F-13.5°C 54% 2.9 mph E4.7 kmh E 3.7 mph6.0 kmh 30.34 in1027.4 mb 0.00 in0.0 mm 0.00 in0.0 mm 0.00 in0.0 mm
08:24 PM 21.8°F-5.7°C 7.7°F-13.5°C 54% 2.9 mph ESE4.7 kmh ESE 4.7 mph7.6 kmh 30.35 in1027.8 mb 0.00 in0.0 mm 0.00 in0.0 mm 0.00 in0.0 mm
08:29 PM 21.8°F-5.7°C 8.5°F-13.1°C 56% 0.8 mph NE1.3 kmh NE 2.7 mph4.3 kmh 30.35 in1027.8 mb 0.00 in0.0 mm 0.00 in0.0 mm 0.00 in0.0 mm
08:34 PM 21.8°F-5.7°C 8.5°F-13.1°C 56% 2.9 mph ENE4.7 kmh ENE 5.4 mph8.7 kmh 30.35 in1027.8 mb 0.00 in0.0 mm 0.00 in0.0 mm 0.00 in0.0 mm
08:39 PM 21.8°F-5.7°C 8.1°F-13.3°C 55% 0.3 mph SSE0.5 kmh SSE 1.6 mph2.6 kmh 30.35 in1027.8 mb 0.00 in0.0 mm 0.00 in0.0 mm 0.00 in0.0 mm
08:44 PM 22.0°F-5.6°C 8.3°F-13.2°C 55% 3.7 mph E6.0 kmh E 5.0 mph8.0 kmh 30.34 in1027.4 mb 0.00 in0.0 mm 0.00 in0.0 mm 0.00 in0.0 mm
08:49 PM 22.0°F-5.6°C 8.3°F-13.2°C 55% 2.3 mph E3.7 kmh E 3.7 mph6.0 kmh 30.34 in1027.4 mb 0.00 in0.0 mm 0.00 in0.0 mm 0.00 in0.0 mm
08:54 PM 22.0°F-5.6°C 8.7°F-12.9°C 56% 2.5 mph ENE4.0 kmh ENE 4.7 mph7.6 kmh 30.34 in1027.4 mb 0.00 in0.0 mm 0.00 in0.0 mm 0.00 in0.0 mm
08:59 PM 22.0°F-5.6°C 9.1°F-12.7°C 57% 1.7 mph E2.7 kmh E 3.7 mph6.0 kmh 30.34 in1027.4 mb 0.00 in0.0 mm 0.00 in0.0 mm 0.00 in0.0 mm
09:04 PM 22.0°F-5.6°C 9.1°F-12.7°C 57% 2.4 mph E3.9 kmh E 3.7 mph6.0 kmh 30.34 in1027.4 mb 0.00 in0.0 mm 0.00 in0.0 mm 0.00 in0.0 mm
09:09 PM 22.0°F-5.6°C 9.1°F-12.7°C 57% 3.7 mph ENE6.0 kmh ENE 5.5 mph8.9 kmh 30.34 in1027.4 mb 0.00 in0.0 mm 0.00 in0.0 mm 0.00 in0.0 mm
09:14 PM 22.0°F-5.6°C 8.7°F-12.9°C 56% 3.4 mph NE5.5 kmh NE 5.5 mph8.9 kmh 30.33 in1027.1 mb 0.00 in0.0 mm 0.00 in0.0 mm 0.00 in0.0 mm
09:19 PM 22.0°F-5.6°C 9.1°F-12.7°C 57% 2.4 mph E3.9 kmh E 4.0 mph6.4 kmh 30.33 in1027.1 mb 0.00 in0.0 mm 0.00 in0.0 mm 0.00 in0.0 mm
09:24 PM 22.0°F-5.6°C 9.1°F-12.7°C 57% 2.0 mph E3.2 kmh E 3.0 mph4.8 kmh 30.33 in1027.1 mb 0.00 in0.0 mm 0.00 in0.0 mm 0.00 in0.0 mm
09:29 PM 22.0°F-5.6°C 9.5°F-12.5°C 58% 3.6 mph NE5.8 kmh NE 4.9 mph7.9 kmh 30.33 in1027.1 mb 0.00 in0.0 mm 0.00 in0.0 mm 0.00 in0.0 mm
09:34 PM 22.0°F-5.6°C 9.5°F-12.5°C 58% 3.0 mph ENE4.8 kmh ENE 5.4 mph8.7 kmh 30.34 in1027.4 mb 0.00 in0.0 mm 0.00 in0.0 mm 0.00 in0.0 mm
09:39 PM 22.0°F-5.6°C 9.1°F-12.7°C 57% 1.8 mph ENE2.9 kmh ENE 3.2 mph5.1 kmh 30.34 in1027.4 mb 0.00 in0.0 mm 0.00 in0.0 mm 0.00 in0.0 mm
09:44 PM 22.1°F-5.5°C 9.2°F-12.7°C 57% 0.7 mph ESE1.1 kmh ESE 1.8 mph2.9 kmh 30.34 in1027.4 mb 0.00 in0.0 mm 0.00 in0.0 mm 0.00 in0.0 mm
09:49 PM 22.1°F-5.5°C 9.6°F-12.4°C 58% 2.4 mph E3.9 kmh E 4.0 mph6.4 kmh 30.32 in1026.8 mb 0.00 in0.0 mm 0.00 in0.0 mm 0.00 in0.0 mm
09:54 PM 22.0°F-5.6°C 9.9°F-12.3°C 59% 1.4 mph ENE2.3 kmh ENE 3.0 mph4.8 kmh 30.32 in1026.8 mb 0.00 in0.0 mm 0.00 in0.0 mm 0.00 in0.0 mm
09:59 PM 21.8°F-5.7°C 10.4°F-12.0°C 61% 1.6 mph E2.6 kmh E 2.1 mph3.4 kmh 30.32 in1026.8 mb 0.00 in0.0 mm 0.00 in0.0 mm 0.00 in0.0 mm
10:04 PM 21.6°F-5.8°C 11.0°F-11.7°C 63% 1.4 mph NE2.3 kmh NE 2.6 mph4.2 kmh 30.31 in1026.4 mb 0.00 in0.0 mm 0.00 in0.0 mm 0.00 in0.0 mm
10:09 PM 21.4°F-5.9°C 11.5°F-11.4°C 65% 3.9 mph ENE6.3 kmh ENE 5.7 mph9.2 kmh 30.31 in1026.4 mb 0.00 in0.0 mm 0.00 in0.0 mm 0.00 in0.0 mm
10:14 PM 21.3°F-5.9°C 12.1°F-11.1°C 67% 0.8 mph E1.3 kmh E 2.7 mph4.3 kmh 30.31 in1026.4 mb 0.00 in0.0 mm 0.00 in0.0 mm 0.00 in0.0 mm
10:19 PM 21.1°F-6.1°C 12.2°F-11.0°C 68% 3.6 mph NNE5.8 kmh NNE 4.7 mph7.6 kmh 30.31 in1026.4 mb 0.00 in0.0 mm 0.00 in0.0 mm 0.00 in0.0 mm
10:24 PM 21.1°F-6.1°C 12.9°F-10.6°C 70% 3.4 mph ENE5.5 kmh ENE 4.7 mph7.6 kmh 30.32 in1026.8 mb 0.00 in0.0 mm 0.00 in0.0 mm 0.00 in0.0 mm
10:29 PM 21.1°F-6.1°C 13.2°F-10.4°C 71% 1.8 mph ENE2.9 kmh ENE 2.6 mph4.2 kmh 30.31 in1026.4 mb 0.00 in0.0 mm 0.00 in0.0 mm 0.00 in0.0 mm
10:34 PM 21.1°F-6.1°C 13.8°F-10.1°C 73% 1.1 mph NE1.8 kmh NE 1.8 mph2.9 kmh 30.31 in1026.4 mb 0.00 in0.0 mm 0.00 in0.0 mm 0.00 in0.0 mm
10:39 PM 21.1°F-6.1°C 13.8°F-10.1°C 73% 1.5 mph NE2.4 kmh NE 2.7 mph4.3 kmh 30.31 in1026.4 mb 0.00 in0.0 mm 0.00 in0.0 mm 0.00 in0.0 mm
10:44 PM 21.1°F-6.1°C 14.4°F-9.8°C 75% 1.2 mph NNE1.9 kmh NNE 2.6 mph4.2 kmh 30.31 in1026.4 mb 0.00 in0.0 mm 0.00 in0.0 mm 0.00 in0.0 mm
10:49 PM 21.1°F-6.1°C 14.4°F-9.8°C 75% Calm Calm -- 30.31 in1026.4 mb 0.00 in0.0 mm 0.00 in0.0 mm 0.00 in0.0 mm
10:54 PM 21.0°F-6.1°C 14.6°F-9.7°C 76% 0.7 mph NNE1.1 kmh NNE 1.6 mph2.6 kmh 30.31 in1026.4 mb 0.00 in0.0 mm 0.00 in0.0 mm 0.00 in0.0 mm
10:59 PM 20.8°F-6.2°C 14.7°F-9.6°C 77% 2.3 mph NE3.7 kmh NE 4.9 mph7.9 kmh 30.31 in1026.4 mb 0.00 in0.0 mm 0.00 in0.0 mm 0.00 in0.0 mm
11:04 PM 20.8°F-6.2°C 15.3°F-9.3°C 79% 1.9 mph ENE3.1 kmh ENE 3.5 mph5.6 kmh 30.30 in1026.1 mb 0.00 in0.0 mm 0.00 in0.0 mm 0.00 in0.0 mm
11:09 PM 20.6°F-6.3°C 15.7°F-9.1°C 81% 4.3 mph ENE6.9 kmh ENE 5.7 mph9.2 kmh 30.30 in1026.1 mb 0.00 in0.0 mm 0.00 in0.0 mm 0.00 in0.0 mm
11:14 PM 20.6°F-6.3°C 16.3°F-8.7°C 83% 1.5 mph NE2.4 kmh NE 4.2 mph6.8 kmh 30.29 in1025.7 mb 0.00 in0.0 mm 0.00 in0.0 mm 0.00 in0.0 mm
11:19 PM 20.6°F-6.3°C 16.5°F-8.6°C 84% 1.9 mph ENE3.1 kmh ENE 4.4 mph7.1 kmh 30.29 in1025.7 mb 0.00 in0.0 mm 0.00 in0.0 mm 0.00 in0.0 mm
11:24 PM 20.6°F-6.3°C 16.5°F-8.6°C 84% 1.5 mph ENE2.4 kmh ENE 4.2 mph6.8 kmh 30.28 in1025.4 mb 0.00 in0.0 mm 0.00 in0.0 mm 0.00 in0.0 mm
11:29 PM 20.6°F-6.3°C 16.8°F-8.4°C 85% 2.6 mph ENE4.2 kmh ENE 5.0 mph8.0 kmh 30.28 in1025.4 mb 0.00 in0.0 mm 0.00 in0.0 mm 0.00 in0.0 mm
11:34 PM 20.6°F-6.3°C 17.1°F-8.3°C 86% 3.2 mph NE5.1 kmh NE 6.7 mph10.8 kmh 30.28 in1025.4 mb 0.00 in0.0 mm 0.00 in0.0 mm 0.00 in0.0 mm
11:39 PM 20.6°F-6.3°C 17.4°F-8.1°C 87% 2.6 mph ENE4.2 kmh ENE 4.9 mph7.9 kmh 30.28 in1025.4 mb 0.00 in0.0 mm 0.00 in0.0 mm 0.00 in0.0 mm
11:44 PM 20.8°F-6.2°C 17.6°F-8.0°C 87% 1.1 mph E1.8 kmh E 2.6 mph4.2 kmh 30.27 in1025.1 mb 0.00 in0.0 mm 0.00 in0.0 mm 0.00 in0.0 mm
11:49 PM 20.9°F-6.2°C 17.7°F-7.9°C 87% 2.4 mph E3.9 kmh E 5.5 mph8.9 kmh 30.27 in1025.1 mb 0.00 in0.0 mm 0.00 in0.0 mm 0.00 in0.0 mm
11:54 PM 21.0°F-6.1°C 18.3°F-7.6°C 89% 3.9 mph NE6.3 kmh NE 6.0 mph9.7 kmh 30.26 in1024.7 mb 0.00 in0.0 mm 0.00 in0.0 mm 0.00 in0.0 mm